sensor_id;sensor_type;location;lat;lon;timestamp;pressure;altitude;pressure_sealevel;temperature;humidity
69957;BME280;57283;54.816;9.482;2022-11-20T00:01:05;100814.91;;;2.00;100.00
69957;BME280;57283;54.816;9.482;2022-11-20T00:03:34;100783.88;;;1.88;100.00
69957;BME280;57283;54.816;9.482;2022-11-20T00:06:04;100792.53;;;1.93;100.00
69957;BME280;57283;54.816;9.482;2022-11-20T00:08:32;100819.22;;;2.04;100.00
69957;BME280;57283;54.816;9.482;2022-11-20T00:11:03;100823.63;;;2.15;100.00
69957;BME280;57283;54.816;9.482;2022-11-20T00:13:31;100825.03;;;1.85;100.00
69957;BME280;57283;54.816;9.482;2022-11-20T00:15:59;100810.63;;;2.02;100.00
69957;BME280;57283;54.816;9.482;2022-11-20T00:18:28;100797.66;;;1.92;100.00
69957;BME280;57283;54.816;9.482;2022-11-20T00:21:02;100773.56;;;1.84;100.00
69957;BME280;57283;54.816;9.482;2022-11-20T00:23:30;100811.53;;;2.09;100.00
69957;BME280;57283;54.816;9.482;2022-11-20T00:26:01;100783.78;;;1.76;100.00
69957;BME280;57283;54.816;9.482;2022-11-20T00:28:30;100801.91;;;1.88;100.00
69957;BME280;57283;54.816;9.482;2022-11-20T00:31:02;100805.41;;;1.93;100.00
69957;BME280;57283;54.816;9.482;2022-11-20T00:33:30;100792.44;;;1.86;100.00
69957;BME280;57283;54.816;9.482;2022-11-20T00:36:00;100802.81;;;1.92;100.00
69957;BME280;57283;54.816;9.482;2022-11-20T00:38:30;100802.03;;;2.00;100.00
69957;BME280;57283;54.816;9.482;2022-11-20T00:40:59;100784.75;;;1.90;100.00
69957;BME280;57283;54.816;9.482;2022-11-20T00:43:27;100794.31;;;2.00;100.00
69957;BME280;57283;54.816;9.482;2022-11-20T00:45:59;100790.00;;;1.99;100.00
69957;BME280;57283;54.816;9.482;2022-11-20T00:48:27;100787.47;;;2.07;100.00
69957;BME280;57283;54.816;9.482;2022-11-20T00:50:55;100784.94;;;2.08;100.00
69957;BME280;57283;54.816;9.482;2022-11-20T00:53:25;100748.47;;;1.63;100.00
69957;BME280;57283;54.816;9.482;2022-11-20T00:55:54;100791.81;;;2.09;100.00
69957;BME280;57283;54.816;9.482;2022-11-20T00:58:23;100779.69;;;1.96;100.00
69957;BME280;57283;54.816;9.482;2022-11-20T01:00:51;100791.78;;;2.06;100.00
69957;BME280;57283;54.816;9.482;2022-11-20T01:03:19;100796.91;;;2.06;100.00
69957;BME280;57283;54.816;9.482;2022-11-20T01:05:52;100790.84;;;2.01;100.00
69957;BME280;57283;54.816;9.482;2022-11-20T01:08:20;100794.41;;;2.13;100.00
69957;BME280;57283;54.816;9.482;2022-11-20T01:10:49;100791.75;;;2.05;100.00
69957;BME280;57283;54.816;9.482;2022-11-20T01:13:17;100797.00;;;2.13;100.00
69957;BME280;57283;54.816;9.482;2022-11-20T01:16:03;100792.66;;;2.10;100.00
69957;BME280;57283;54.816;9.482;2022-11-20T01:18:31;100799.53;;;2.11;100.00
69957;BME280;57283;54.816;9.482;2022-11-20T01:21:03;100796.09;;;2.09;100.00
69957;BME280;57283;54.816;9.482;2022-11-20T01:23:32;100787.50;;;2.08;100.00
69957;BME280;57283;54.816;9.482;2022-11-20T01:26:02;100787.44;;;2.04;100.00
69957;BME280;57283;54.816;9.482;2022-11-20T01:28:31;100792.44;;;1.87;100.00
69957;BME280;57283;54.816;9.482;2022-11-20T01:31:00;100790.84;;;1.98;100.00
69957;BME280;57283;54.816;9.482;2022-11-20T01:33:28;100786.63;;;2.06;100.00
69957;BME280;57283;54.816;9.482;2022-11-20T01:36:03;100750.38;;;1.82;100.00
69957;BME280;57283;54.816;9.482;2022-11-20T01:38:31;100795.09;;;1.93;100.00
69957;BME280;57283;54.816;9.482;2022-11-20T01:40:59;100779.53;;;1.81;100.00
69957;BME280;57283;54.816;9.482;2022-11-20T01:43:29;100780.56;;;2.00;100.00
69957;BME280;57283;54.816;9.482;2022-11-20T01:46:03;100776.38;;;2.13;100.00
69957;BME280;57283;54.816;9.482;2022-11-20T01:48:37;100775.38;;;1.95;100.00
69957;BME280;57283;54.816;9.482;2022-11-20T01:51:12;100766.78;;;1.95;100.00
69957;BME280;57283;54.816;9.482;2022-11-20T01:53:40;100771.00;;;1.88;100.00
69957;BME280;57283;54.816;9.482;2022-11-20T01:56:10;100771.91;;;1.92;100.00
69957;BME280;57283;54.816;9.482;2022-11-20T01:58:47;100773.63;;;1.91;100.00
69957;BME280;57283;54.816;9.482;2022-11-20T02:01:16;100741.63;;;1.68;100.00
69957;BME280;57283;54.816;9.482;2022-11-20T02:03:44;100765.09;;;2.01;100.00
69957;BME280;57283;54.816;9.482;2022-11-20T02:06:16;100756.50;;;1.96;100.00
69957;BME280;57283;54.816;9.482;2022-11-20T02:08:46;100765.94;;;1.97;100.00
69957;BME280;57283;54.816;9.482;2022-11-20T02:11:14;100764.13;;;1.84;100.00
69957;BME280;57283;54.816;9.482;2022-11-20T02:13:44;100761.69;;;2.01;100.00
69957;BME280;57283;54.816;9.482;2022-11-20T02:16:19;100761.63;;;1.95;100.00
69957;BME280;57283;54.816;9.482;2022-11-20T02:18:48;100759.94;;;2.01;100.00
69957;BME280;57283;54.816;9.482;2022-11-20T02:21:35;100761.63;;;1.93;100.00
69957;BME280;57283;54.816;9.482;2022-11-20T02:24:08;100752.22;;;1.98;100.00
69957;BME280;57283;54.816;9.482;2022-11-20T02:26:42;100763.19;;;1.76;100.00
69957;BME280;57283;54.816;9.482;2022-11-20T02:29:13;100757.22;;;1.85;100.00
69957;BME280;57283;54.816;9.482;2022-11-20T02:31:44;100752.03;;;1.77;100.00
69957;BME280;57283;54.816;9.482;2022-11-20T02:34:12;100751.25;;;1.86;100.00
69957;BME280;57283;54.816;9.482;2022-11-20T02:36:41;100753.00;;;1.90;100.00
69957;BME280;57283;54.816;9.482;2022-11-20T02:39:11;100751.41;;;2.01;100.00
69957;BME280;57283;54.816;9.482;2022-11-20T02:41:43;100748.75;;;1.93;100.00
69957;BME280;57283;54.816;9.482;2022-11-20T02:44:11;100697.00;;;1.64;100.00
69957;BME280;57283;54.816;9.482;2022-11-20T02:46:39;100750.53;;;2.03;100.00
69957;BME280;57283;54.816;9.482;2022-11-20T02:49:07;100745.38;;;2.00;100.00
69957;BME280;57283;54.816;9.482;2022-11-20T02:51:35;100745.41;;;2.06;100.00
69957;BME280;57283;54.816;9.482;2022-11-20T02:54:03;100740.06;;;1.85;100.00
69957;BME280;57283;54.816;9.482;2022-11-20T02:56:32;100747.03;;;1.95;100.00
69957;BME280;57283;54.816;9.482;2022-11-20T02:59:00;100755.56;;;1.88;100.00
69957;BME280;57283;54.816;9.482;2022-11-20T03:01:28;100753.81;;;1.84;100.00
69957;BME280;57283;54.816;9.482;2022-11-20T03:03:56;100748.63;;;1.78;100.00
69957;BME280;57283;54.816;9.482;2022-11-20T03:06:24;100739.13;;;1.75;100.00
69957;BME280;57283;54.816;9.482;2022-11-20T03:08:52;100722.78;;;1.72;100.00
69957;BME280;57283;54.816;9.482;2022-11-20T03:11:20;100750.91;;;1.52;100.00
69957;BME280;57283;54.816;9.482;2022-11-20T03:13:49;100749.41;;;1.72;100.00
69957;BME280;57283;54.816;9.482;2022-11-20T03:16:20;100740.88;;;1.77;100.00
69957;BME280;57283;54.816;9.482;2022-11-20T03:18:49;100747.78;;;1.85;100.00
69957;BME280;57283;54.816;9.482;2022-11-20T03:21:17;100746.13;;;1.90;100.00
69957;BME280;57283;54.816;9.482;2022-11-20T03:23:44;100743.53;;;1.87;100.00
69957;BME280;57283;54.816;9.482;2022-11-20T03:26:14;100739.22;;;1.82;100.00
69957;BME280;57283;54.816;9.482;2022-11-20T03:28:46;100739.28;;;1.92;100.00
69957;BME280;57283;54.816;9.482;2022-11-20T03:31:17;100746.75;;;1.62;100.00
69957;BME280;57283;54.816;9.482;2022-11-20T03:33:45;100741.72;;;1.77;100.00
69957;BME280;57283;54.816;9.482;2022-11-20T03:36:15;100745.06;;;1.64;100.00
69957;BME280;57283;54.816;9.482;2022-11-20T03:38:44;100746.97;;;1.89;100.00
69957;BME280;57283;54.816;9.482;2022-11-20T03:41:15;100729.91;;;1.99;100.00
69957;BME280;57283;54.816;9.482;2022-11-20T03:43:47;100727.34;;;2.00;100.00
69957;BME280;57283;54.816;9.482;2022-11-20T03:46:17;100729.16;;;2.12;100.00
69957;BME280;57283;54.816;9.482;2022-11-20T03:48:45;100717.88;;;1.96;100.00
69957;BME280;57283;54.816;9.482;2022-11-20T03:51:19;100719.69;;;2.13;100.00
69957;BME280;57283;54.816;9.482;2022-11-20T03:53:50;100726.63;;;2.17;100.00
69957;BME280;57283;54.816;9.482;2022-11-20T03:56:20;100728.31;;;2.15;100.00
69957;BME280;57283;54.816;9.482;2022-11-20T03:58:49;100722.25;;;2.11;100.00
69957;BME280;57283;54.816;9.482;2022-11-20T04:01:20;100714.41;;;1.94;100.00
69957;BME280;57283;54.816;9.482;2022-11-20T04:03:49;100723.19;;;2.18;100.00
69957;BME280;57283;54.816;9.482;2022-11-20T04:06:18;100692.00;;;1.83;100.00
69957;BME280;57283;54.816;9.482;2022-11-20T04:08:46;100717.88;;;1.96;100.00
69957;BME280;57283;54.816;9.482;2022-11-20T04:11:21;100726.47;;;2.01;100.00
69957;BME280;57283;54.816;9.482;2022-11-20T04:13:50;100716.19;;;2.04;100.00
69957;BME280;57283;54.816;9.482;2022-11-20T04:16:21;100720.59;;;2.15;100.00
69957;BME280;57283;54.816;9.482;2022-11-20T04:18:51;100722.22;;;2.06;100.00
69957;BME280;57283;54.816;9.482;2022-11-20T04:21:20;100646.44;;;1.72;100.00
69957;BME280;57283;54.816;9.482;2022-11-20T04:23:49;100682.56;;;1.82;100.00
69957;BME280;57283;54.816;9.482;2022-11-20T04:26:16;100706.56;;;1.78;100.00
69957;BME280;57283;54.816;9.482;2022-11-20T04:28:44;100726.47;;;1.98;100.00
69957;BME280;57283;54.816;9.482;2022-11-20T04:31:14;100714.53;;;2.09;100.00
69957;BME280;57283;54.816;9.482;2022-11-20T04:33:44;100712.75;;;1.99;100.00
69957;BME280;57283;54.816;9.482;2022-11-20T04:36:13;100707.59;;;1.99;100.00
69957;BME280;57283;54.816;9.482;2022-11-20T04:38:42;100700.72;;;1.98;100.00
69957;BME280;57283;54.816;9.482;2022-11-20T04:41:14;100721.06;;;1.71;100.00
69957;BME280;57283;54.816;9.482;2022-11-20T04:43:46;100704.88;;;1.81;100.00
69957;BME280;57283;54.816;9.482;2022-11-20T04:46:14;100694.41;;;1.63;100.00
69957;BME280;57283;54.816;9.482;2022-11-20T04:48:43;100718.63;;;1.83;100.00
69957;BME280;57283;54.816;9.482;2022-11-20T04:51:12;100714.13;;;1.61;100.00
69957;BME280;57283;54.816;9.482;2022-11-20T04:53:40;100720.75;;;1.37;100.00
69957;BME280;57283;54.816;9.482;2022-11-20T04:56:10;100737.47;;;0.96;100.00
69957;BME280;57283;54.816;9.482;2022-11-20T04:58:39;100720.31;;;0.95;100.00
69957;BME280;57283;54.816;9.482;2022-11-20T05:01:09;100737.03;;;0.62;100.00
69957;BME280;57283;54.816;9.482;2022-11-20T05:03:37;100725.16;;;0.74;100.00
69957;BME280;57283;54.816;9.482;2022-11-20T05:06:10;100696.50;;;0.42;100.00
69957;BME280;57283;54.816;9.482;2022-11-20T05:08:38;100712.22;;;0.67;100.00
69957;BME280;57283;54.816;9.482;2022-11-20T05:11:08;100709.75;;;0.74;100.00
69957;BME280;57283;54.816;9.482;2022-11-20T05:13:36;100705.41;;;0.69;100.00
69957;BME280;57283;54.816;9.482;2022-11-20T05:16:06;100712.34;;;0.75;100.00
69957;BME280;57283;54.816;9.482;2022-11-20T05:18:35;100711.38;;;0.68;100.00
69957;BME280;57283;54.816;9.482;2022-11-20T05:21:04;100701.72;;;0.48;100.00
69957;BME280;57283;54.816;9.482;2022-11-20T05:23:33;100706.00;;;0.47;100.00
69957;BME280;57283;54.816;9.482;2022-11-20T05:26:02;100704.31;;;0.49;100.00
69957;BME280;57283;54.816;9.482;2022-11-20T05:28:31;100704.25;;;0.45;100.00
69957;BME280;57283;54.816;9.482;2022-11-20T05:31:04;100713.69;;;0.47;100.00
69957;BME280;57283;54.816;9.482;2022-11-20T05:33:32;100705.91;;;0.41;100.00
69957;BME280;57283;54.816;9.482;2022-11-20T05:36:00;100698.31;;;0.52;100.00
69957;BME280;57283;54.816;9.482;2022-11-20T05:38:28;100706.91;;;0.54;100.00
69957;BME280;57283;54.816;9.482;2022-11-20T05:41:04;100699.38;;;0.64;100.00
69957;BME280;57283;54.816;9.482;2022-11-20T05:43:33;100698.44;;;0.59;100.00
69957;BME280;57283;54.816;9.482;2022-11-20T05:46:01;100702.06;;;0.75;100.00
69957;BME280;57283;54.816;9.482;2022-11-20T05:48:30;100692.47;;;0.60;100.00
69957;BME280;57283;54.816;9.482;2022-11-20T05:50:58;100705.41;;;0.69;100.00
69957;BME280;57283;54.816;9.482;2022-11-20T05:53:26;100704.53;;;0.67;100.00
69957;BME280;57283;54.816;9.482;2022-11-20T05:55:58;100693.28;;;0.58;100.00
69957;BME280;57283;54.816;9.482;2022-11-20T05:58:27;100698.38;;;0.56;100.00
69957;BME280;57283;54.816;9.482;2022-11-20T06:01:03;100706.06;;;0.53;100.00
69957;BME280;57283;54.816;9.482;2022-11-20T06:03:31;100707.78;;;0.54;100.00
69957;BME280;57283;54.816;9.482;2022-11-20T06:05:59;100695.78;;;0.53;100.00
69957;BME280;57283;54.816;9.482;2022-11-20T06:08:27;100699.25;;;0.57;100.00
69957;BME280;57283;54.816;9.482;2022-11-20T06:10:56;100694.97;;;0.57;100.00
69957;BME280;57283;54.816;9.482;2022-11-20T06:13:24;100690.69;;;0.56;100.00
69957;BME280;57283;54.816;9.482;2022-11-20T06:15:53;100692.41;;;0.57;100.00
69957;BME280;57283;54.816;9.482;2022-11-20T06:18:21;100689.88;;;0.59;100.00
69957;BME280;57283;54.816;9.482;2022-11-20T06:20:49;100694.97;;;0.57;100.00
69957;BME280;57283;54.816;9.482;2022-11-20T06:23:17;100678.59;;;0.51;100.00
69957;BME280;57283;54.816;9.482;2022-11-20T06:25:45;100690.75;;;0.61;100.00
69957;BME280;57283;54.816;9.482;2022-11-20T06:28:13;100681.22;;;0.54;100.00
69957;BME280;57283;54.816;9.482;2022-11-20T06:30:44;100695.88;;;0.61;100.00
69957;BME280;57283;54.816;9.482;2022-11-20T06:33:13;100696.81;;;0.64;100.00
69957;BME280;57283;54.816;9.482;2022-11-20T06:35:41;100692.50;;;0.63;100.00
69957;BME280;57283;54.816;9.482;2022-11-20T06:38:09;100602.72;;;0.08;100.00
69957;BME280;57283;54.816;9.482;2022-11-20T06:40:39;100701.91;;;0.63;100.00
69957;BME280;57283;54.816;9.482;2022-11-20T06:43:08;100685.63;;;0.62;100.00
69957;BME280;57283;54.816;9.482;2022-11-20T06:45:36;100694.09;;;0.55;100.00
69957;BME280;57283;54.816;9.482;2022-11-20T06:48:04;100690.53;;;0.44;100.00
69957;BME280;57283;54.816;9.482;2022-11-20T06:50:33;100702.59;;;0.48;100.00
69957;BME280;57283;54.816;9.482;2022-11-20T06:53:02;100703.28;;;0.38;100.00
69957;BME280;57283;54.816;9.482;2022-11-20T06:55:31;100697.13;;;0.25;100.00
69957;BME280;57283;54.816;9.482;2022-11-20T06:57:59;100693.63;;;0.22;100.00
69957;BME280;57283;54.816;9.482;2022-11-20T07:00:26;100699.66;;;0.24;100.00
69957;BME280;57283;54.816;9.482;2022-11-20T07:02:54;100689.28;;;0.18;100.00
69957;BME280;57283;54.816;9.482;2022-11-20T07:05:22;100703.84;;;0.19;100.00
69957;BME280;57283;54.816;9.482;2022-11-20T07:07:51;100696.97;;;0.15;100.00
69957;BME280;57283;54.816;9.482;2022-11-20T07:10:19;100693.47;;;0.10;100.00
69957;BME280;57283;54.816;9.482;2022-11-20T07:12:49;100708.97;;;0.16;100.00
69957;BME280;57283;54.816;9.482;2022-11-20T07:15:17;100700.44;;;0.17;100.00
69957;BME280;57283;54.816;9.482;2022-11-20T07:17:45;100681.34;;;-0.01;100.00
69957;BME280;57283;54.816;9.482;2022-11-20T07:20:13;100709.84;;;0.18;100.00
69957;BME280;57283;54.816;9.482;2022-11-20T07:22:41;100706.44;;;0.19;100.00
69957;BME280;57283;54.816;9.482;2022-11-20T07:25:11;100692.72;;;0.18;100.00
69957;BME280;57283;54.816;9.482;2022-11-20T07:27:38;100685.03;;;0.17;100.00
69957;BME280;57283;54.816;9.482;2022-11-20T07:30:07;100686.03;;;0.28;100.00
69957;BME280;57283;54.816;9.482;2022-11-20T07:32:35;100689.53;;;0.34;100.00
69957;BME280;57283;54.816;9.482;2022-11-20T07:35:04;100692.31;;;0.48;100.00
69957;BME280;57283;54.816;9.482;2022-11-20T07:37:34;100691.56;;;0.58;100.00
69957;BME280;57283;54.816;9.482;2022-11-20T07:40:02;100699.44;;;0.72;100.00
69957;BME280;57283;54.816;9.482;2022-11-20T07:42:32;100693.56;;;0.79;100.00
69957;BME280;57283;54.816;9.482;2022-11-20T07:44:59;100694.53;;;0.90;100.00
69957;BME280;57283;54.816;9.482;2022-11-20T07:47:27;100690.16;;;0.85;100.00
69957;BME280;57283;54.816;9.482;2022-11-20T07:49:55;100702.91;;;0.76;100.00
69957;BME280;57283;54.816;9.482;2022-11-20T07:52:23;100579.66;;;0.11;100.00
69957;BME280;57283;54.816;9.482;2022-11-20T07:54:51;100701.25;;;0.78;100.00
69957;BME280;57283;54.816;9.482;2022-11-20T07:57:19;100700.28;;;0.71;100.00
69957;BME280;57283;54.816;9.482;2022-11-20T07:59:55;100701.06;;;0.62;100.00
69957;BME280;57283;54.816;9.482;2022-11-20T08:02:22;100707.97;;;0.69;100.00
69957;BME280;57283;54.816;9.482;2022-11-20T08:04:50;100684.22;;;1.75;100.00
69957;BME280;57283;54.816;9.482;2022-11-20T08:07:18;100691.50;;;2.34;100.00
69957;BME280;57283;54.816;9.482;2022-11-20T08:09:46;100692.34;;;2.36;100.00
69957;BME280;57283;54.816;9.482;2022-11-20T08:12:17;100685.84;;;3.38;100.00
69957;BME280;57283;54.816;9.482;2022-11-20T08:15:06;100694.47;;;3.31;100.00
69957;BME280;57283;54.816;9.482;2022-11-20T08:17:38;100671.22;;;4.06;100.00
69957;BME280;57283;54.816;9.482;2022-11-20T08:20:07;100610.72;;;2.27;100.00
69957;BME280;57283;54.816;9.482;2022-11-20T08:22:35;100694.06;;;2.37;100.00
69957;BME280;57283;54.816;9.482;2022-11-20T08:25:04;100694.88;;;2.25;100.00
69957;BME280;57283;54.816;9.482;2022-11-20T08:27:32;100707.47;;;1.86;100.00
69957;BME280;57283;54.816;9.482;2022-11-20T08:30:07;100713.28;;;1.62;100.00
69957;BME280;57283;54.816;9.482;2022-11-20T08:32:35;100713.84;;;1.30;100.00
69957;BME280;57283;54.816;9.482;2022-11-20T08:35:04;100717.50;;;1.57;100.00
69957;BME280;57283;54.816;9.482;2022-11-20T08:37:32;100717.31;;;1.35;100.00
69957;BME280;57283;54.816;9.482;2022-11-20T08:40:00;100715.06;;;0.89;100.00
69957;BME280;57283;54.816;9.482;2022-11-20T08:42:28;100723.00;;;1.07;100.00
69957;BME280;57283;54.816;9.482;2022-11-20T08:44:55;100724.00;;;1.21;100.00
69957;BME280;57283;54.816;9.482;2022-11-20T08:47:25;100696.19;;;4.14;100.00
69957;BME280;57283;54.816;9.482;2022-11-20T08:49:52;100702.16;;;4.38;100.00
69957;BME280;57283;54.816;9.482;2022-11-20T08:52:20;100696.09;;;3.05;100.00
69957;BME280;57283;54.816;9.482;2022-11-20T08:54:48;100704.66;;;4.77;100.00
69957;BME280;57283;54.816;9.482;2022-11-20T08:57:16;100690.03;;;6.06;100.00
69957;BME280;57283;54.816;9.482;2022-11-20T08:59:43;100709.81;;;4.77;100.00
69957;BME280;57283;54.816;9.482;2022-11-20T09:02:33;100704.69;;;6.88;100.00
69957;BME280;57283;54.816;9.482;2022-11-20T09:05:01;100688.81;;;7.13;100.00
69957;BME280;57283;54.816;9.482;2022-11-20T09:07:29;100696.91;;;6.12;100.00
69957;BME280;57283;54.816;9.482;2022-11-20T09:09:57;100694.28;;;6.15;100.00
69957;BME280;57283;54.816;9.482;2022-11-20T09:12:48;100698.97;;;6.60;100.00
69957;BME280;57283;54.816;9.482;2022-11-20T09:15:16;100688.91;;;8.17;100.00
69957;BME280;57283;54.816;9.482;2022-11-20T09:17:51;100701.69;;;6.51;100.00
69957;BME280;57283;54.816;9.482;2022-11-20T09:20:19;100705.25;;;6.40;100.00
69957;BME280;57283;54.816;9.482;2022-11-20T09:22:48;100689.66;;;7.71;100.00
69957;BME280;57283;54.816;9.482;2022-11-20T09:25:16;100701.63;;;5.55;100.00
69957;BME280;57283;54.816;9.482;2022-11-20T09:27:44;100708.25;;;4.20;100.00
69957;BME280;57283;54.816;9.482;2022-11-20T09:30:13;100613.31;;;4.63;100.00
69957;BME280;57283;54.816;9.482;2022-11-20T09:32:41;100714.06;;;4.98;100.00
69957;BME280;57283;54.816;9.482;2022-11-20T09:35:11;100703.44;;;6.51;100.00
69957;BME280;57283;54.816;9.482;2022-11-20T09:37:38;100711.56;;;4.78;100.00
69957;BME280;57283;54.816;9.482;2022-11-20T09:40:17;100683.19;;;5.99;100.00
69957;BME280;57283;54.816;9.482;2022-11-20T09:42:49;100698.38;;;5.24;100.00
69957;BME280;57283;54.816;9.482;2022-11-20T09:45:35;100699.59;;;6.01;100.00
69957;BME280;57283;54.816;9.482;2022-11-20T09:48:35;100678.84;;;7.99;100.00
69957;BME280;57283;54.816;9.482;2022-11-20T09:51:14;100682.94;;;7.58;100.00
69957;BME280;57283;54.816;9.482;2022-11-20T09:53:54;100686.63;;;8.48;100.00
69957;BME280;57283;54.816;9.482;2022-11-20T09:56:25;100679.25;;;7.73;100.00
69957;BME280;57283;54.816;9.482;2022-11-20T09:58:55;100689.97;;;6.15;100.00
69957;BME280;57283;54.816;9.482;2022-11-20T10:01:29;100691.69;;;6.13;100.00
69957;BME280;57283;54.816;9.482;2022-11-20T10:04:01;100683.59;;;7.14;100.00
69957;BME280;57283;54.816;9.482;2022-11-20T10:06:33;100676.50;;;5.69;100.00
69957;BME280;57283;54.816;9.482;2022-11-20T10:09:08;100673.88;;;6.64;100.00
69957;BME280;57283;54.816;9.482;2022-11-20T10:11:48;100674.72;;;6.66;100.00
69957;BME280;57283;54.816;9.482;2022-11-20T10:14:23;100672.00;;;5.94;100.00
69957;BME280;57283;54.816;9.482;2022-11-20T10:17:02;100665.72;;;6.91;100.00
69957;BME280;57283;54.816;9.482;2022-11-20T10:19:40;100653.63;;;9.67;100.00
69957;BME280;57283;54.816;9.482;2022-11-20T10:22:19;100662.78;;;8.22;100.00
69957;BME280;57283;54.816;9.482;2022-11-20T10:24:55;100657.06;;;7.52;100.00
69957;BME280;57283;54.816;9.482;2022-11-20T10:27:40;100672.00;;;6.74;100.00
69957;BME280;57283;54.816;9.482;2022-11-20T10:30:13;100626.88;;;8.85;100.00
69957;BME280;57283;54.816;9.482;2022-11-20T10:32:43;100669.22;;;6.12;100.00
69957;BME280;57283;54.816;9.482;2022-11-20T10:35:20;100657.56;;;7.74;100.00
69957;BME280;57283;54.816;9.482;2022-11-20T10:37:55;100647.41;;;8.11;100.00
69957;BME280;57283;54.816;9.482;2022-11-20T10:40:30;100629.81;;;7.21;100.00
69957;BME280;57283;54.816;9.482;2022-11-20T10:43:01;100658.34;;;6.58;100.00
69957;BME280;57283;54.816;9.482;2022-11-20T10:45:42;100648.66;;;6.74;100.00
69957;BME280;57283;54.816;9.482;2022-11-20T10:48:21;100655.09;;;6.41;100.00
69957;BME280;57283;54.816;9.482;2022-11-20T10:51:10;100666.69;;;4.82;100.00
69957;BME280;57283;54.816;9.482;2022-11-20T10:54:06;100649.63;;;7.29;100.00
69957;BME280;57283;54.816;9.482;2022-11-20T10:56:40;100659.66;;;5.03;100.00
69957;BME280;57283;54.816;9.482;2022-11-20T10:59:41;100661.81;;;5.70;100.00
69957;BME280;57283;54.816;9.482;2022-11-20T11:02:16;100659.81;;;4.72;100.00
69957;BME280;57283;54.816;9.482;2022-11-20T11:04:46;100641.28;;;5.47;100.00
69957;BME280;57283;54.816;9.482;2022-11-20T11:07:17;100657.28;;;4.60;100.00
69957;BME280;57283;54.816;9.482;2022-11-20T11:09:50;100659.88;;;4.63;100.00
69957;BME280;57283;54.816;9.482;2022-11-20T11:12:19;100635.06;;;4.01;100.00
69957;BME280;57283;54.816;9.482;2022-11-20T11:14:49;100651.31;;;4.52;100.00
69957;BME280;57283;54.816;9.482;2022-11-20T11:17:26;100642.53;;;4.83;100.00
69957;BME280;57283;54.816;9.482;2022-11-20T11:20:13;100642.84;;;3.83;100.00
69957;BME280;57283;54.816;9.482;2022-11-20T11:22:44;100637.66;;;3.98;100.00
69957;BME280;57283;54.816;9.482;2022-11-20T11:25:26;100636.72;;;4.30;100.00
69957;BME280;57283;54.816;9.482;2022-11-20T11:27:58;100637.59;;;4.26;100.00
69957;BME280;57283;54.816;9.482;2022-11-20T11:30:28;100620.06;;;4.88;100.00
69957;BME280;57283;54.816;9.482;2022-11-20T11:33:04;100632.91;;;5.07;100.00
69957;BME280;57283;54.816;9.482;2022-11-20T11:35:33;100632.19;;;4.85;100.00
69957;BME280;57283;54.816;9.482;2022-11-20T11:38:05;100619.28;;;5.95;100.00
69957;BME280;57283;54.816;9.482;2022-11-20T11:40:37;100636.44;;;4.90;100.00
69957;BME280;57283;54.816;9.482;2022-11-20T11:43:15;100636.75;;;4.11;100.00
69957;BME280;57283;54.816;9.482;2022-11-20T11:46:24;100501.22;;;4.64;100.00
69957;BME280;57283;54.816;9.482;2022-11-20T11:48:56;100617.34;;;6.15;100.00
69957;BME280;57283;54.816;9.482;2022-11-20T11:51:26;100607.63;;;5.42;100.00
69957;BME280;57283;54.816;9.482;2022-11-20T11:53:58;100604.47;;;6.06;100.00
69957;BME280;57283;54.816;9.482;2022-11-20T11:56:30;100599.38;;;6.71;100.00
69957;BME280;57283;54.816;9.482;2022-11-20T11:59:05;100618.66;;;6.53;100.00
69957;BME280;57283;54.816;9.482;2022-11-20T12:01:42;100586.22;;;6.18;100.00
69957;BME280;57283;54.816;9.482;2022-11-20T12:04:17;100611.34;;;6.10;100.00
69957;BME280;57283;54.816;9.482;2022-11-20T12:06:50;100609.22;;;7.09;100.00
69957;BME280;57283;54.816;9.482;2022-11-20T12:09:21;100608.91;;;7.30;100.00
69957;BME280;57283;54.816;9.482;2022-11-20T12:11:55;100602.13;;;5.80;100.00
69957;BME280;57283;54.816;9.482;2022-11-20T12:14:28;100609.59;;;6.84;100.00
69957;BME280;57283;54.816;9.482;2022-11-20T12:17:00;100605.88;;;5.46;100.00
69957;BME280;57283;54.816;9.482;2022-11-20T12:19:30;100562.78;;;6.87;100.00
69957;BME280;57283;54.816;9.482;2022-11-20T12:22:05;100607.50;;;6.45;100.00
69957;BME280;57283;54.816;9.482;2022-11-20T12:24:57;100591.31;;;7.47;100.00
69957;BME280;57283;54.816;9.482;2022-11-20T12:27:44;100592.44;;;7.31;100.00
69957;BME280;57283;54.816;9.482;2022-11-20T12:30:16;100573.91;;;7.52;100.00
69957;BME280;57283;54.816;9.482;2022-11-20T12:36:01;100578.09;;;9.64;76.77
69957;BME280;57283;54.816;9.482;2022-11-20T12:41:31;100581.91;;;9.51;79.75
69957;BME280;57283;54.816;9.482;2022-11-20T12:44:37;100577.84;;;9.73;69.32
69957;BME280;57283;54.816;9.482;2022-11-20T12:47:33;100577.56;;;6.19;100.00
69957;BME280;57283;54.816;9.482;2022-11-20T12:50:12;100569.69;;;6.88;100.00
69957;BME280;57283;54.816;9.482;2022-11-20T12:52:46;100563.03;;;7.80;100.00
69957;BME280;57283;54.816;9.482;2022-11-20T12:55:28;100539.44;;;6.87;100.00
69957;BME280;57283;54.816;9.482;2022-11-20T12:58:05;100551.13;;;7.17;100.00
69957;BME280;57283;54.816;9.482;2022-11-20T13:00:46;100547.94;;;8.42;95.86
69957;BME280;57283;54.816;9.482;2022-11-20T13:03:34;100524.06;;;6.09;100.00
69957;BME280;57283;54.816;9.482;2022-11-20T13:06:18;100482.28;;;7.41;99.54
69957;BME280;57283;54.816;9.482;2022-11-20T13:08:50;100535.19;;;6.83;100.00
69957;BME280;57283;54.816;9.482;2022-11-20T13:11:24;100544.91;;;6.03;100.00
69957;BME280;57283;54.816;9.482;2022-11-20T13:14:09;100525.03;;;5.09;100.00
69957;BME280;57283;54.816;9.482;2022-11-20T13:16:49;100541.94;;;4.19;100.00
69957;BME280;57283;54.816;9.482;2022-11-20T13:19:20;100544.63;;;4.00;100.00